sensor_id;sensor_type;location;lat;lon;timestamp;P1;durP1;ratioP1;P2;durP2;ratioP2
37647;SDS011;23490;53.656;10.076;2024-01-30T00:02:12;12.90;;;5.30;;
37647;SDS011;23490;53.656;10.076;2024-01-30T00:04:37;8.70;;;5.07;;
37647;SDS011;23490;53.656;10.076;2024-01-30T00:07:03;10.73;;;5.20;;
37647;SDS011;23490;53.656;10.076;2024-01-30T00:09:28;10.63;;;4.82;;
37647;SDS011;23490;53.656;10.076;2024-01-30T00:11:53;8.57;;;4.40;;
37647;SDS011;23490;53.656;10.076;2024-01-30T00:14:19;9.98;;;4.85;;
37647;SDS011;23490;53.656;10.076;2024-01-30T00:16:44;13.18;;;4.78;;
37647;SDS011;23490;53.656;10.076;2024-01-30T00:19:10;10.63;;;5.05;;
37647;SDS011;23490;53.656;10.076;2024-01-30T00:21:35;10.85;;;4.25;;
37647;SDS011;23490;53.656;10.076;2024-01-30T00:24:01;9.98;;;4.55;;
37647;SDS011;23490;53.656;10.076;2024-01-30T00:26:26;8.27;;;4.20;;
37647;SDS011;23490;53.656;10.076;2024-01-30T00:28:51;7.90;;;4.13;;
37647;SDS011;23490;53.656;10.076;2024-01-30T00:31:17;10.70;;;4.10;;
37647;SDS011;23490;53.656;10.076;2024-01-30T00:33:42;9.40;;;4.35;;
37647;SDS011;23490;53.656;10.076;2024-01-30T00:36:08;7.72;;;4.05;;
37647;SDS011;23490;53.656;10.076;2024-01-30T00:38:34;8.43;;;4.25;;
37647;SDS011;23490;53.656;10.076;2024-01-30T00:41:00;8.95;;;4.03;;
37647;SDS011;23490;53.656;10.076;2024-01-30T00:43:26;7.35;;;3.97;;
37647;SDS011;23490;53.656;10.076;2024-01-30T00:45:52;9.45;;;4.18;;
37647;SDS011;23490;53.656;10.076;2024-01-30T00:48:17;8.10;;;4.00;;
37647;SDS011;23490;53.656;10.076;2024-01-30T00:50:43;6.50;;;3.58;;
37647;SDS011;23490;53.656;10.076;2024-01-30T00:53:08;8.23;;;4.13;;
37647;SDS011;23490;53.656;10.076;2024-01-30T00:55:34;7.47;;;3.85;;
37647;SDS011;23490;53.656;10.076;2024-01-30T00:57:59;9.30;;;4.65;;
37647;SDS011;23490;53.656;10.076;2024-01-30T01:00:24;8.93;;;4.03;;
37647;SDS011;23490;53.656;10.076;2024-01-30T01:02:54;9.95;;;4.25;;
37647;SDS011;23490;53.656;10.076;2024-01-30T01:05:20;9.68;;;4.28;;
37647;SDS011;23490;53.656;10.076;2024-01-30T01:07:45;7.78;;;3.83;;
37647;SDS011;23490;53.656;10.076;2024-01-30T01:10:12;10.38;;;4.22;;
37647;SDS011;23490;53.656;10.076;2024-01-30T01:12:38;10.50;;;4.28;;
37647;SDS011;23490;53.656;10.076;2024-01-30T01:15:04;7.35;;;3.92;;
37647;SDS011;23490;53.656;10.076;2024-01-30T01:17:30;8.77;;;3.88;;
37647;SDS011;23490;53.656;10.076;2024-01-30T01:19:56;6.10;;;3.92;;
37647;SDS011;23490;53.656;10.076;2024-01-30T01:22:22;7.13;;;3.92;;
37647;SDS011;23490;53.656;10.076;2024-01-30T01:24:47;11.93;;;4.65;;
37647;SDS011;23490;53.656;10.076;2024-01-30T01:27:13;7.70;;;3.60;;
37647;SDS011;23490;53.656;10.076;2024-01-30T01:29:38;7.82;;;3.75;;
37647;SDS011;23490;53.656;10.076;2024-01-30T01:32:04;9.40;;;4.05;;
37647;SDS011;23490;53.656;10.076;2024-01-30T01:34:29;6.15;;;3.22;;
37647;SDS011;23490;53.656;10.076;2024-01-30T01:36:55;9.93;;;4.25;;
37647;SDS011;23490;53.656;10.076;2024-01-30T01:39:20;8.45;;;4.60;;
37647;SDS011;23490;53.656;10.076;2024-01-30T01:41:47;7.13;;;3.60;;
37647;SDS011;23490;53.656;10.076;2024-01-30T01:44:13;10.23;;;4.30;;
37647;SDS011;23490;53.656;10.076;2024-01-30T01:46:38;7.45;;;3.55;;
37647;SDS011;23490;53.656;10.076;2024-01-30T01:49:04;8.50;;;4.35;;
37647;SDS011;23490;53.656;10.076;2024-01-30T01:51:31;8.63;;;3.80;;
37647;SDS011;23490;53.656;10.076;2024-01-30T01:53:59;7.18;;;3.83;;
37647;SDS011;23490;53.656;10.076;2024-01-30T01:56:28;8.43;;;3.67;;
37647;SDS011;23490;53.656;10.076;2024-01-30T01:58:54;6.30;;;3.40;;
37647;SDS011;23490;53.656;10.076;2024-01-30T02:01:20;10.18;;;4.57;;
37647;SDS011;23490;53.656;10.076;2024-01-30T02:03:46;10.98;;;4.10;;
37647;SDS011;23490;53.656;10.076;2024-01-30T02:06:13;7.78;;;4.20;;
37647;SDS011;23490;53.656;10.076;2024-01-30T02:08:39;9.10;;;4.18;;
37647;SDS011;23490;53.656;10.076;2024-01-30T02:11:05;6.80;;;3.67;;
37647;SDS011;23490;53.656;10.076;2024-01-30T02:13:31;8.48;;;4.70;;
37647;SDS011;23490;53.656;10.076;2024-01-30T02:15:56;9.27;;;3.70;;
37647;SDS011;23490;53.656;10.076;2024-01-30T02:18:22;6.85;;;3.50;;
37647;SDS011;23490;53.656;10.076;2024-01-30T02:20:47;10.13;;;4.18;;
37647;SDS011;23490;53.656;10.076;2024-01-30T02:23:14;9.23;;;3.45;;
37647;SDS011;23490;53.656;10.076;2024-01-30T02:25:44;6.60;;;3.28;;
37647;SDS011;23490;53.656;10.076;2024-01-30T02:28:10;8.98;;;3.63;;
37647;SDS011;23490;53.656;10.076;2024-01-30T02:30:37;6.45;;;3.35;;
37647;SDS011;23490;53.656;10.076;2024-01-30T02:33:02;8.30;;;4.00;;
37647;SDS011;23490;53.656;10.076;2024-01-30T02:35:28;8.63;;;4.00;;
37647;SDS011;23490;53.656;10.076;2024-01-30T02:37:53;8.25;;;3.65;;
37647;SDS011;23490;53.656;10.076;2024-01-30T02:40:18;7.25;;;3.90;;
37647;SDS011;23490;53.656;10.076;2024-01-30T02:42:44;13.02;;;3.78;;
37647;SDS011;23490;53.656;10.076;2024-01-30T02:45:09;6.82;;;3.78;;
37647;SDS011;23490;53.656;10.076;2024-01-30T02:47:35;7.68;;;3.85;;
37647;SDS011;23490;53.656;10.076;2024-01-30T02:50:00;11.05;;;4.38;;
37647;SDS011;23490;53.656;10.076;2024-01-30T02:52:26;9.13;;;3.53;;
37647;SDS011;23490;53.656;10.076;2024-01-30T02:54:51;11.32;;;4.03;;
37647;SDS011;23490;53.656;10.076;2024-01-30T02:57:16;8.00;;;4.43;;
37647;SDS011;23490;53.656;10.076;2024-01-30T02:59:42;6.32;;;3.38;;
37647;SDS011;23490;53.656;10.076;2024-01-30T03:02:08;8.00;;;4.10;;
37647;SDS011;23490;53.656;10.076;2024-01-30T03:04:33;7.10;;;3.60;;
37647;SDS011;23490;53.656;10.076;2024-01-30T03:06:59;6.43;;;3.22;;
37647;SDS011;23490;53.656;10.076;2024-01-30T03:09:24;7.60;;;3.95;;
37647;SDS011;23490;53.656;10.076;2024-01-30T03:11:49;6.88;;;3.33;;
37647;SDS011;23490;53.656;10.076;2024-01-30T03:14:15;8.60;;;4.10;;
37647;SDS011;23490;53.656;10.076;2024-01-30T03:16:41;7.88;;;3.60;;
37647;SDS011;23490;53.656;10.076;2024-01-30T03:19:06;9.07;;;4.03;;
37647;SDS011;23490;53.656;10.076;2024-01-30T03:21:35;8.48;;;4.43;;
37647;SDS011;23490;53.656;10.076;2024-01-30T03:24:00;10.25;;;3.88;;
37647;SDS011;23490;53.656;10.076;2024-01-30T03:26:25;8.98;;;4.82;;
37647;SDS011;23490;53.656;10.076;2024-01-30T03:28:51;9.60;;;4.55;;
37647;SDS011;23490;53.656;10.076;2024-01-30T03:31:16;8.75;;;4.07;;
37647;SDS011;23490;53.656;10.076;2024-01-30T03:33:42;8.20;;;3.88;;
37647;SDS011;23490;53.656;10.076;2024-01-30T03:36:07;9.85;;;4.35;;
37647;SDS011;23490;53.656;10.076;2024-01-30T03:38:33;7.80;;;3.78;;
37647;SDS011;23490;53.656;10.076;2024-01-30T03:40:59;8.27;;;4.28;;
37647;SDS011;23490;53.656;10.076;2024-01-30T03:43:25;9.05;;;4.25;;
37647;SDS011;23490;53.656;10.076;2024-01-30T03:45:50;6.88;;;3.30;;
37647;SDS011;23490;53.656;10.076;2024-01-30T03:48:16;8.93;;;4.90;;
37647;SDS011;23490;53.656;10.076;2024-01-30T03:50:41;7.13;;;3.67;;
37647;SDS011;23490;53.656;10.076;2024-01-30T03:53:07;9.45;;;4.57;;
37647;SDS011;23490;53.656;10.076;2024-01-30T03:55:32;14.35;;;5.55;;
37647;SDS011;23490;53.656;10.076;2024-01-30T03:57:57;9.88;;;4.65;;
37647;SDS011;23490;53.656;10.076;2024-01-30T04:00:23;11.95;;;5.90;;
37647;SDS011;23490;53.656;10.076;2024-01-30T04:02:48;10.15;;;4.97;;
37647;SDS011;23490;53.656;10.076;2024-01-30T04:05:13;8.93;;;4.60;;
37647;SDS011;23490;53.656;10.076;2024-01-30T04:07:39;8.10;;;4.22;;
37647;SDS011;23490;53.656;10.076;2024-01-30T04:10:04;10.65;;;4.63;;
37647;SDS011;23490;53.656;10.076;2024-01-30T04:12:31;11.68;;;4.65;;
37647;SDS011;23490;53.656;10.076;2024-01-30T04:14:56;8.73;;;4.60;;
37647;SDS011;23490;53.656;10.076;2024-01-30T04:17:22;9.48;;;5.00;;
37647;SDS011;23490;53.656;10.076;2024-01-30T04:19:47;8.25;;;4.30;;
37647;SDS011;23490;53.656;10.076;2024-01-30T04:22:12;8.85;;;4.57;;
37647;SDS011;23490;53.656;10.076;2024-01-30T04:24:38;8.23;;;4.60;;
37647;SDS011;23490;53.656;10.076;2024-01-30T04:27:04;13.13;;;4.28;;
37647;SDS011;23490;53.656;10.076;2024-01-30T04:29:29;10.48;;;4.63;;
37647;SDS011;23490;53.656;10.076;2024-01-30T04:31:54;7.88;;;4.63;;
37647;SDS011;23490;53.656;10.076;2024-01-30T04:34:20;10.13;;;4.65;;
37647;SDS011;23490;53.656;10.076;2024-01-30T04:36:45;9.70;;;4.95;;
37647;SDS011;23490;53.656;10.076;2024-01-30T04:39:11;11.02;;;4.40;;
37647;SDS011;23490;53.656;10.076;2024-01-30T04:41:37;8.00;;;4.60;;
37647;SDS011;23490;53.656;10.076;2024-01-30T04:44:03;9.18;;;4.65;;
37647;SDS011;23490;53.656;10.076;2024-01-30T04:46:28;7.90;;;4.30;;
37647;SDS011;23490;53.656;10.076;2024-01-30T04:48:54;7.25;;;4.18;;
37647;SDS011;23490;53.656;10.076;2024-01-30T04:51:19;7.47;;;4.05;;
37647;SDS011;23490;53.656;10.076;2024-01-30T04:53:44;8.38;;;4.72;;
37647;SDS011;23490;53.656;10.076;2024-01-30T04:56:10;11.57;;;4.35;;
37647;SDS011;23490;53.656;10.076;2024-01-30T04:58:35;8.60;;;4.40;;
37647;SDS011;23490;53.656;10.076;2024-01-30T05:01:01;9.25;;;3.90;;
37647;SDS011;23490;53.656;10.076;2024-01-30T05:03:27;8.50;;;4.43;;
37647;SDS011;23490;53.656;10.076;2024-01-30T05:05:52;8.45;;;4.57;;
37647;SDS011;23490;53.656;10.076;2024-01-30T05:08:18;8.27;;;4.35;;
37647;SDS011;23490;53.656;10.076;2024-01-30T05:10:43;11.15;;;4.85;;
37647;SDS011;23490;53.656;10.076;2024-01-30T05:13:09;10.63;;;5.65;;
37647;SDS011;23490;53.656;10.076;2024-01-30T05:15:34;11.27;;;5.28;;
37647;SDS011;23490;53.656;10.076;2024-01-30T05:18:00;10.02;;;4.97;;
37647;SDS011;23490;53.656;10.076;2024-01-30T05:20:25;10.57;;;5.22;;
37647;SDS011;23490;53.656;10.076;2024-01-30T05:22:53;8.98;;;5.15;;
37647;SDS011;23490;53.656;10.076;2024-01-30T05:25:18;10.73;;;5.18;;
37647;SDS011;23490;53.656;10.076;2024-01-30T05:27:44;9.98;;;4.93;;
37647;SDS011;23490;53.656;10.076;2024-01-30T05:30:09;10.73;;;5.15;;
37647;SDS011;23490;53.656;10.076;2024-01-30T05:32:35;16.55;;;5.93;;
37647;SDS011;23490;53.656;10.076;2024-01-30T05:35:01;10.75;;;5.88;;
37647;SDS011;23490;53.656;10.076;2024-01-30T05:37:26;11.25;;;4.80;;
37647;SDS011;23490;53.656;10.076;2024-01-30T05:39:52;9.20;;;5.15;;
37647;SDS011;23490;53.656;10.076;2024-01-30T05:42:17;11.63;;;5.43;;
37647;SDS011;23490;53.656;10.076;2024-01-30T05:44:42;12.63;;;5.82;;
37647;SDS011;23490;53.656;10.076;2024-01-30T05:47:08;10.77;;;6.00;;
37647;SDS011;23490;53.656;10.076;2024-01-30T05:49:33;11.90;;;5.95;;
37647;SDS011;23490;53.656;10.076;2024-01-30T05:51:59;11.68;;;5.35;;
37647;SDS011;23490;53.656;10.076;2024-01-30T05:54:27;11.85;;;5.78;;
37647;SDS011;23490;53.656;10.076;2024-01-30T05:56:52;11.40;;;6.45;;
37647;SDS011;23490;53.656;10.076;2024-01-30T05:59:17;11.90;;;5.80;;
37647;SDS011;23490;53.656;10.076;2024-01-30T06:01:46;9.50;;;5.38;;
37647;SDS011;23490;53.656;10.076;2024-01-30T06:04:12;11.88;;;5.55;;
37647;SDS011;23490;53.656;10.076;2024-01-30T06:06:38;11.93;;;5.45;;
37647;SDS011;23490;53.656;10.076;2024-01-30T06:09:03;12.70;;;5.88;;
37647;SDS011;23490;53.656;10.076;2024-01-30T06:11:30;10.43;;;5.40;;
37647;SDS011;23490;53.656;10.076;2024-01-30T06:13:55;12.43;;;5.80;;
37647;SDS011;23490;53.656;10.076;2024-01-30T06:16:20;12.25;;;5.55;;
37647;SDS011;23490;53.656;10.076;2024-01-30T06:18:46;10.40;;;5.82;;
37647;SDS011;23490;53.656;10.076;2024-01-30T06:21:12;11.80;;;5.75;;
37647;SDS011;23490;53.656;10.076;2024-01-30T06:23:38;13.98;;;5.53;;
37647;SDS011;23490;53.656;10.076;2024-01-30T06:26:03;10.20;;;5.07;;
37647;SDS011;23490;53.656;10.076;2024-01-30T06:28:29;14.10;;;6.82;;
37647;SDS011;23490;53.656;10.076;2024-01-30T06:30:55;12.80;;;5.82;;
37647;SDS011;23490;53.656;10.076;2024-01-30T06:33:20;14.20;;;6.28;;
37647;SDS011;23490;53.656;10.076;2024-01-30T06:35:46;11.77;;;5.82;;
37647;SDS011;23490;53.656;10.076;2024-01-30T06:38:11;10.57;;;5.40;;
37647;SDS011;23490;53.656;10.076;2024-01-30T06:40:36;14.48;;;6.15;;
37647;SDS011;23490;53.656;10.076;2024-01-30T06:43:02;11.38;;;6.13;;
37647;SDS011;23490;53.656;10.076;2024-01-30T06:45:29;11.75;;;5.93;;
37647;SDS011;23490;53.656;10.076;2024-01-30T06:47:54;12.55;;;6.20;;
37647;SDS011;23490;53.656;10.076;2024-01-30T06:50:19;11.10;;;5.50;;
37647;SDS011;23490;53.656;10.076;2024-01-30T06:52:45;13.52;;;6.50;;
37647;SDS011;23490;53.656;10.076;2024-01-30T06:55:10;12.23;;;6.53;;
37647;SDS011;23490;53.656;10.076;2024-01-30T06:57:36;11.20;;;6.00;;
37647;SDS011;23490;53.656;10.076;2024-01-30T07:00:02;11.55;;;6.15;;
37647;SDS011;23490;53.656;10.076;2024-01-30T07:02:27;9.00;;;4.90;;
37647;SDS011;23490;53.656;10.076;2024-01-30T07:04:53;11.60;;;6.45;;
37647;SDS011;23490;53.656;10.076;2024-01-30T07:07:18;14.27;;;6.20;;
37647;SDS011;23490;53.656;10.076;2024-01-30T07:09:43;13.50;;;5.65;;
37647;SDS011;23490;53.656;10.076;2024-01-30T07:12:09;10.15;;;5.53;;
37647;SDS011;23490;53.656;10.076;2024-01-30T07:14:35;14.10;;;6.03;;
37647;SDS011;23490;53.656;10.076;2024-01-30T07:17:00;11.50;;;5.63;;
37647;SDS011;23490;53.656;10.076;2024-01-30T07:19:26;13.80;;;6.43;;
37647;SDS011;23490;53.656;10.076;2024-01-30T07:21:51;11.30;;;5.90;;
37647;SDS011;23490;53.656;10.076;2024-01-30T07:24:17;12.63;;;5.93;;
37647;SDS011;23490;53.656;10.076;2024-01-30T07:26:42;10.30;;;5.72;;
37647;SDS011;23490;53.656;10.076;2024-01-30T07:29:07;11.63;;;5.53;;
37647;SDS011;23490;53.656;10.076;2024-01-30T07:31:33;12.57;;;5.75;;
37647;SDS011;23490;53.656;10.076;2024-01-30T07:33:58;12.85;;;5.40;;
37647;SDS011;23490;53.656;10.076;2024-01-30T07:36:23;15.73;;;6.95;;
37647;SDS011;23490;53.656;10.076;2024-01-30T07:38:49;12.73;;;7.10;;
37647;SDS011;23490;53.656;10.076;2024-01-30T07:41:14;16.48;;;6.57;;
37647;SDS011;23490;53.656;10.076;2024-01-30T07:43:39;14.57;;;6.93;;
37647;SDS011;23490;53.656;10.076;2024-01-30T07:46:05;13.30;;;6.57;;
37647;SDS011;23490;53.656;10.076;2024-01-30T07:48:31;21.02;;;6.47;;
37647;SDS011;23490;53.656;10.076;2024-01-30T07:50:58;10.45;;;5.72;;
37647;SDS011;23490;53.656;10.076;2024-01-30T07:53:24;15.30;;;6.55;;
37647;SDS011;23490;53.656;10.076;2024-01-30T07:55:49;13.48;;;6.03;;
37647;SDS011;23490;53.656;10.076;2024-01-30T07:58:15;11.18;;;5.80;;
37647;SDS011;23490;53.656;10.076;2024-01-30T08:00:40;18.13;;;6.80;;
37647;SDS011;23490;53.656;10.076;2024-01-30T08:03:06;11.85;;;6.28;;
37647;SDS011;23490;53.656;10.076;2024-01-30T08:05:31;19.23;;;6.65;;
37647;SDS011;23490;53.656;10.076;2024-01-30T08:07:57;12.55;;;6.13;;
37647;SDS011;23490;53.656;10.076;2024-01-30T08:10:22;13.57;;;6.50;;
37647;SDS011;23490;53.656;10.076;2024-01-30T08:12:47;15.18;;;7.43;;
37647;SDS011;23490;53.656;10.076;2024-01-30T08:15:13;16.63;;;6.72;;
37647;SDS011;23490;53.656;10.076;2024-01-30T08:17:38;13.13;;;6.72;;
37647;SDS011;23490;53.656;10.076;2024-01-30T08:20:04;13.52;;;6.22;;
37647;SDS011;23490;53.656;10.076;2024-01-30T08:22:30;12.60;;;6.50;;
37647;SDS011;23490;53.656;10.076;2024-01-30T08:24:55;10.50;;;5.75;;
37647;SDS011;23490;53.656;10.076;2024-01-30T08:27:21;12.95;;;5.50;;
37647;SDS011;23490;53.656;10.076;2024-01-30T08:29:46;13.05;;;6.03;;
37647;SDS011;23490;53.656;10.076;2024-01-30T08:32:11;14.98;;;7.97;;
37647;SDS011;23490;53.656;10.076;2024-01-30T08:34:37;13.95;;;5.90;;
37647;SDS011;23490;53.656;10.076;2024-01-30T08:37:02;13.10;;;6.40;;
37647;SDS011;23490;53.656;10.076;2024-01-30T08:39:28;11.70;;;6.03;;
37647;SDS011;23490;53.656;10.076;2024-01-30T08:41:54;13.27;;;6.30;;
37647;SDS011;23490;53.656;10.076;2024-01-30T08:44:19;13.30;;;6.47;;
37647;SDS011;23490;53.656;10.076;2024-01-30T08:46:44;12.70;;;5.93;;
37647;SDS011;23490;53.656;10.076;2024-01-30T08:49:10;11.40;;;5.80;;
37647;SDS011;23490;53.656;10.076;2024-01-30T08:51:41;12.18;;;6.75;;
37647;SDS011;23490;53.656;10.076;2024-01-30T08:54:06;12.73;;;6.75;;
37647;SDS011;23490;53.656;10.076;2024-01-30T08:56:32;13.18;;;6.57;;
37647;SDS011;23490;53.656;10.076;2024-01-30T08:58:57;14.45;;;6.80;;
37647;SDS011;23490;53.656;10.076;2024-01-30T09:01:23;12.50;;;6.55;;
37647;SDS011;23490;53.656;10.076;2024-01-30T09:03:48;17.38;;;7.10;;
37647;SDS011;23490;53.656;10.076;2024-01-30T09:06:13;11.23;;;5.60;;
37647;SDS011;23490;53.656;10.076;2024-01-30T09:08:39;13.50;;;5.97;;
37647;SDS011;23490;53.656;10.076;2024-01-30T09:11:14;14.13;;;7.72;;
37647;SDS011;23490;53.656;10.076;2024-01-30T09:13:40;13.63;;;7.20;;
37647;SDS011;23490;53.656;10.076;2024-01-30T09:16:06;13.45;;;7.35;;
37647;SDS011;23490;53.656;10.076;2024-01-30T09:18:32;17.38;;;6.38;;
37647;SDS011;23490;53.656;10.076;2024-01-30T09:20:58;17.48;;;6.57;;
37647;SDS011;23490;53.656;10.076;2024-01-30T09:23:23;11.50;;;6.10;;
37647;SDS011;23490;53.656;10.076;2024-01-30T09:25:49;11.57;;;5.88;;
37647;SDS011;23490;53.656;10.076;2024-01-30T09:28:14;11.85;;;6.40;;
37647;SDS011;23490;53.656;10.076;2024-01-30T09:30:40;13.75;;;6.15;;
37647;SDS011;23490;53.656;10.076;2024-01-30T09:33:06;11.52;;;6.00;;
37647;SDS011;23490;53.656;10.076;2024-01-30T09:35:31;17.38;;;6.60;;
37647;SDS011;23490;53.656;10.076;2024-01-30T09:37:57;11.43;;;6.80;;
37647;SDS011;23490;53.656;10.076;2024-01-30T09:40:23;11.95;;;5.93;;
37647;SDS011;23490;53.656;10.076;2024-01-30T09:42:48;12.65;;;6.78;;
37647;SDS011;23490;53.656;10.076;2024-01-30T09:45:15;12.00;;;5.85;;
37647;SDS011;23490;53.656;10.076;2024-01-30T09:47:43;12.98;;;6.38;;
37647;SDS011;23490;53.656;10.076;2024-01-30T09:50:10;13.57;;;6.22;;
37647;SDS011;23490;53.656;10.076;2024-01-30T09:52:37;11.23;;;6.25;;
37647;SDS011;23490;53.656;10.076;2024-01-30T09:55:03;12.20;;;6.50;;
37647;SDS011;23490;53.656;10.076;2024-01-30T09:57:28;19.13;;;8.00;;
37647;SDS011;23490;53.656;10.076;2024-01-30T09:59:54;12.82;;;6.15;;
37647;SDS011;23490;53.656;10.076;2024-01-30T10:02:19;11.90;;;5.68;;
37647;SDS011;23490;53.656;10.076;2024-01-30T10:04:48;12.35;;;5.78;;
37647;SDS011;23490;53.656;10.076;2024-01-30T10:07:14;14.65;;;6.72;;
37647;SDS011;23490;53.656;10.076;2024-01-30T10:09:40;12.30;;;6.30;;
37647;SDS011;23490;53.656;10.076;2024-01-30T10:12:06;15.02;;;6.90;;
37647;SDS011;23490;53.656;10.076;2024-01-30T10:14:31;12.07;;;7.10;;
37647;SDS011;23490;53.656;10.076;2024-01-30T10:16:57;17.40;;;7.03;;
37647;SDS011;23490;53.656;10.076;2024-01-30T10:19:23;11.77;;;6.28;;
37647;SDS011;23490;53.656;10.076;2024-01-30T10:21:48;12.38;;;6.72;;
37647;SDS011;23490;53.656;10.076;2024-01-30T10:24:14;10.88;;;6.00;;
37647;SDS011;23490;53.656;10.076;2024-01-30T10:26:40;10.25;;;5.57;;
37647;SDS011;23490;53.656;10.076;2024-01-30T10:29:05;10.65;;;6.25;;
37647;SDS011;23490;53.656;10.076;2024-01-30T10:31:31;10.60;;;5.78;;
37647;SDS011;23490;53.656;10.076;2024-01-30T10:33:56;13.48;;;5.80;;
37647;SDS011;23490;53.656;10.076;2024-01-30T10:36:21;15.05;;;5.97;;
37647;SDS011;23490;53.656;10.076;2024-01-30T10:38:53;12.68;;;6.68;;
37647;SDS011;23490;53.656;10.076;2024-01-30T10:41:25;11.38;;;5.43;;
37647;SDS011;23490;53.656;10.076;2024-01-30T10:44:02;9.45;;;5.20;;
37647;SDS011;23490;53.656;10.076;2024-01-30T10:46:33;17.60;;;6.07;;
37647;SDS011;23490;53.656;10.076;2024-01-30T10:49:02;12.02;;;6.03;;
37647;SDS011;23490;53.656;10.076;2024-01-30T10:51:29;12.57;;;5.90;;
37647;SDS011;23490;53.656;10.076;2024-01-30T10:53:56;17.63;;;6.82;;
37647;SDS011;23490;53.656;10.076;2024-01-30T10:56:22;12.05;;;6.03;;
37647;SDS011;23490;53.656;10.076;2024-01-30T10:58:49;11.13;;;6.35;;
37647;SDS011;23490;53.656;10.076;2024-01-30T11:01:16;14.65;;;5.75;;
37647;SDS011;23490;53.656;10.076;2024-01-30T11:03:42;12.35;;;5.90;;
37647;SDS011;23490;53.656;10.076;2024-01-30T11:06:10;10.77;;;5.70;;
37647;SDS011;23490;53.656;10.076;2024-01-30T11:08:39;13.20;;;6.40;;
37647;SDS011;23490;53.656;10.076;2024-01-30T11:11:07;11.85;;;6.00;;
37647;SDS011;23490;53.656;10.076;2024-01-30T11:13:34;9.90;;;5.40;;
37647;SDS011;23490;53.656;10.076;2024-01-30T11:16:00;10.82;;;6.53;;
37647;SDS011;23490;53.656;10.076;2024-01-30T11:18:30;13.82;;;5.65;;
37647;SDS011;23490;53.656;10.076;2024-01-30T11:23:23;9.68;;;4.90;;
37647;SDS011;23490;53.656;10.076;2024-01-30T11:25:55;14.20;;;6.43;;
37647;SDS011;23490;53.656;10.076;2024-01-30T11:28:21;12.00;;;6.45;;
37647;SDS011;23490;53.656;10.076;2024-01-30T11:30:47;13.25;;;6.70;;
37647;SDS011;23490;53.656;10.076;2024-01-30T11:33:15;11.30;;;5.63;;
37647;SDS011;23490;53.656;10.076;2024-01-30T11:35:56;12.55;;;6.35;;
37647;SDS011;23490;53.656;10.076;2024-01-30T11:38:22;10.65;;;6.45;;
37647;SDS011;23490;53.656;10.076;2024-01-30T11:40:50;10.98;;;5.32;;
37647;SDS011;23490;53.656;10.076;2024-01-30T11:43:16;13.38;;;6.50;;
37647;SDS011;23490;53.656;10.076;2024-01-30T11:45:42;11.02;;;5.60;;
37647;SDS011;23490;53.656;10.076;2024-01-30T11:48:10;9.52;;;5.30;;
37647;SDS011;23490;53.656;10.076;2024-01-30T11:50:37;11.73;;;5.22;;
37647;SDS011;23490;53.656;10.076;2024-01-30T11:53:03;14.05;;;5.47;;
37647;SDS011;23490;53.656;10.076;2024-01-30T11:55:29;11.23;;;5.60;;
37647;SDS011;23490;53.656;10.076;2024-01-30T11:57:56;9.75;;;5.57;;
37647;SDS011;23490;53.656;10.076;2024-01-30T12:00:22;10.70;;;5.72;;
37647;SDS011;23490;53.656;10.076;2024-01-30T12:02:51;9.65;;;5.35;;
37647;SDS011;23490;53.656;10.076;2024-01-30T12:05:20;11.63;;;5.80;;
37647;SDS011;23490;53.656;10.076;2024-01-30T12:07:46;12.00;;;5.72;;
37647;SDS011;23490;53.656;10.076;2024-01-30T12:10:12;13.40;;;6.53;;
37647;SDS011;23490;53.656;10.076;2024-01-30T12:12:42;11.77;;;5.65;;
37647;SDS011;23490;53.656;10.076;2024-01-30T12:15:12;10.20;;;5.57;;
37647;SDS011;23490;53.656;10.076;2024-01-30T12:17:38;12.40;;;5.43;;
37647;SDS011;23490;53.656;10.076;2024-01-30T12:22:29;9.88;;;4.88;;
37647;SDS011;23490;53.656;10.076;2024-01-30T12:24:55;12.82;;;6.15;;
37647;SDS011;23490;53.656;10.076;2024-01-30T12:27:20;22.10;;;7.82;;
37647;SDS011;23490;53.656;10.076;2024-01-30T12:29:45;9.38;;;5.07;;
37647;SDS011;23490;53.656;10.076;2024-01-30T12:32:15;11.57;;;6.30;;
37647;SDS011;23490;53.656;10.076;2024-01-30T12:34:41;11.65;;;5.63;;
37647;SDS011;23490;53.656;10.076;2024-01-30T12:37:07;9.52;;;5.22;;
37647;SDS011;23490;53.656;10.076;2024-01-30T12:39:34;14.77;;;7.55;;
37647;SDS011;23490;53.656;10.076;2024-01-30T12:42:00;11.20;;;5.80;;
37647;SDS011;23490;53.656;10.076;2024-01-30T12:44:25;13.57;;;6.28;;
37647;SDS011;23490;53.656;10.076;2024-01-30T12:46:51;10.35;;;5.45;;
37647;SDS011;23490;53.656;10.076;2024-01-30T12:49:16;10.18;;;5.95;;
37647;SDS011;23490;53.656;10.076;2024-01-30T12:51:42;10.27;;;5.85;;
37647;SDS011;23490;53.656;10.076;2024-01-30T12:54:07;11.55;;;5.50;;
37647;SDS011;23490;53.656;10.076;2024-01-30T12:56:32;11.38;;;5.25;;
37647;SDS011;23490;53.656;10.076;2024-01-30T12:58:58;8.45;;;5.03;;
37647;SDS011;23490;53.656;10.076;2024-01-30T13:01:23;10.32;;;5.60;;
37647;SDS011;23490;53.656;10.076;2024-01-30T13:03:49;12.45;;;5.38;;
37647;SDS011;23490;53.656;10.076;2024-01-30T13:06:14;14.80;;;5.97;;
37647;SDS011;23490;53.656;10.076;2024-01-30T13:08:40;10.15;;;5.20;;
37647;SDS011;23490;53.656;10.076;2024-01-30T13:11:05;12.90;;;5.32;;
37647;SDS011;23490;53.656;10.076;2024-01-30T13:13:31;13.27;;;5.88;;
37647;SDS011;23490;53.656;10.076;2024-01-30T13:15:57;10.63;;;5.07;;
37647;SDS011;23490;53.656;10.076;2024-01-30T13:18:22;9.80;;;4.88;;
37647;SDS011;23490;53.656;10.076;2024-01-30T13:20:47;8.82;;;4.72;;
37647;SDS011;23490;53.656;10.076;2024-01-30T13:23:13;11.68;;;4.82;;
37647;SDS011;23490;53.656;10.076;2024-01-30T13:25:38;10.00;;;5.22;;
37647;SDS011;23490;53.656;10.076;2024-01-30T13:28:03;9.35;;;4.85;;
37647;SDS011;23490;53.656;10.076;2024-01-30T13:30:29;10.85;;;5.03;;
37647;SDS011;23490;53.656;10.076;2024-01-30T13:32:54;9.15;;;5.18;;
37647;SDS011;23490;53.656;10.076;2024-01-30T13:35:20;11.13;;;4.93;;
37647;SDS011;23490;53.656;10.076;2024-01-30T13:37:45;11.13;;;4.93;;
37647;SDS011;23490;53.656;10.076;2024-01-30T13:40:12;10.07;;;5.45;;
37647;SDS011;23490;53.656;10.076;2024-01-30T13:42:39;12.48;;;5.43;;
37647;SDS011;23490;53.656;10.076;2024-01-30T13:45:05;10.73;;;5.00;;
37647;SDS011;23490;53.656;10.076;2024-01-30T13:47:31;25.50;;;6.60;;
37647;SDS011;23490;53.656;10.076;2024-01-30T13:49:56;11.57;;;5.75;;
37647;SDS011;23490;53.656;10.076;2024-01-30T13:52:22;14.18;;;6.82;;
37647;SDS011;23490;53.656;10.076;2024-01-30T13:54:47;9.90;;;5.57;;
37647;SDS011;23490;53.656;10.076;2024-01-30T13:57:12;13.00;;;5.60;;
37647;SDS011;23490;53.656;10.076;2024-01-30T13:59:38;9.88;;;5.00;;
37647;SDS011;23490;53.656;10.076;2024-01-30T14:02:03;8.77;;;4.88;;
37647;SDS011;23490;53.656;10.076;2024-01-30T14:04:29;10.20;;;6.13;;
37647;SDS011;23490;53.656;10.076;2024-01-30T14:06:54;10.60;;;5.65;;
37647;SDS011;23490;53.656;10.076;2024-01-30T14:09:19;11.48;;;5.88;;
37647;SDS011;23490;53.656;10.076;2024-01-30T14:11:46;9.95;;;5.30;;
37647;SDS011;23490;53.656;10.076;2024-01-30T14:14:11;9.45;;;5.32;;
37647;SDS011;23490;53.656;10.076;2024-01-30T14:16:37;13.60;;;5.95;;
37647;SDS011;23490;53.656;10.076;2024-01-30T14:19:02;10.48;;;4.72;;
37647;SDS011;23490;53.656;10.076;2024-01-30T14:21:27;10.68;;;5.45;;
37647;SDS011;23490;53.656;10.076;2024-01-30T14:23:53;9.23;;;5.22;;